Time;durP1;ratioP1;P1;durP2;ratioP2;P2;SDS_P1;SDS_P2;PMS_P1;PMS_P2;Temp;Humidity;BMP_temperature;BMP_pressure;BME280_temperature;BME280_humidity;BME280_pressure;Samples;Min_cycle;Max_cycle;Signal;HPM_P1;HPM_P2
2021/08/25 00:00:11;;;;;;;3.85;2.45;;;19.30;99.90;;;;;;5049792;28;20274;-74
2021/08/25 00:02:40;;;;;;;2.58;1.70;;;19.30;99.90;;;;;;5049980;28;20597;-74
2021/08/25 00:05:08;;;;;;;2.67;2.15;;;19.20;99.90;;;;;;5049998;28;20192;-75
2021/08/25 00:07:34;;;;;;;2.88;1.60;;;19.20;99.90;;;;;;5048815;28;20215;-75
2021/08/25 00:10:01;;;;;;;2.33;2.13;;;19.20;99.90;;;;;;5041859;28;20199;-74
2021/08/25 00:12:30;;;;;;;3.80;1.83;;;19.20;99.90;;;;;;5051872;28;20188;-76
2021/08/25 00:14:57;;;;;;;2.35;2.00;;;19.10;99.90;;;;;;5048916;28;20260;-74
2021/08/25 00:17:23;;;;;;;2.17;1.63;;;19.10;99.90;;;;;;5046460;28;20200;-74
2021/08/25 00:19:51;;;;;;;2.35;1.90;;;19.20;99.90;;;;;;5050108;28;20220;-74
2021/08/25 00:22:18;;;;;;;2.17;1.48;;;19.10;99.90;;;;;;5048567;28;20203;-75
2021/08/25 00:24:45;;;;;;;2.20;2.00;;;19.10;99.90;;;;;;5037846;28;20204;-74
2021/08/25 00:27:12;;;;;;;2.65;1.70;;;19.20;99.90;;;;;;5050115;28;20215;-75
2021/08/25 00:29:38;;;;;;;1.92;1.65;;;19.00;99.90;;;;;;5048299;28;20238;-75
2021/08/25 00:32:05;;;;;;;1.90;1.63;;;19.00;99.90;;;;;;5053723;28;20653;-75
2021/08/25 00:34:32;;;;;;;3.63;2.15;;;19.00;99.90;;;;;;5051025;28;20187;-76
2021/08/25 00:37:00;;;;;;;2.28;1.90;;;19.00;99.90;;;;;;5051771;28;20195;-75
2021/08/25 00:39:27;;;;;;;2.30;1.60;;;19.00;99.90;;;;;;5044283;28;20611;-75
2021/08/25 00:41:54;;;;;;;2.58;1.70;;;19.00;99.90;;;;;;5048024;28;20195;-75
2021/08/25 00:44:20;;;;;;;2.22;1.70;;;18.90;99.90;;;;;;5050969;28;20200;-75
2021/08/25 00:46:47;;;;;;;3.47;1.67;;;18.90;99.90;;;;;;5049193;28;20227;-75
2021/08/25 00:49:14;;;;;;;3.58;2.08;;;18.90;99.90;;;;;;5053186;28;20725;-75
2021/08/25 00:51:45;;;;;;;2.10;1.85;;;18.90;99.90;;;;;;5050803;28;20198;-74
2021/08/25 00:54:13;;;;;;;4.63;2.13;;;18.80;99.90;;;;;;5049969;28;20253;-75
2021/08/25 00:56:41;;;;;;;2.95;1.85;;;18.90;99.90;;;;;;5049983;28;20241;-74
2021/08/25 00:59:07;;;;;;;2.40;1.80;;;18.80;99.90;;;;;;5049081;28;20195;-75
2021/08/25 01:01:43;;;;;;;2.90;2.20;;;18.80;99.90;;;;;;5049356;28;20204;-75
2021/08/25 01:04:18;;;;;;;2.47;1.90;;;18.80;99.90;;;;;;5031547;28;20207;-75
2021/08/25 01:06:46;;;;;;;2.85;2.15;;;18.70;99.90;;;;;;5041686;28;20216;-74
2021/08/25 01:09:14;;;;;;;4.07;2.17;;;18.70;99.90;;;;;;5043389;28;20196;-74
2021/08/25 01:11:44;;;;;;;3.03;1.95;;;18.80;99.90;;;;;;5046016;28;20195;-74
2021/08/25 01:14:11;;;;;;;2.50;1.83;;;18.70;99.90;;;;;;5048362;28;20226;-74
2021/08/25 01:16:39;;;;;;;3.40;1.70;;;18.70;99.90;;;;;;5049002;28;20712;-74
2021/08/25 01:19:08;;;;;;;3.20;2.47;;;18.70;99.90;;;;;;5050966;28;20253;-74
2021/08/25 01:21:36;;;;;;;1.85;1.63;;;18.70;99.90;;;;;;5052715;28;20187;-74
2021/08/25 01:24:03;;;;;;;2.78;1.98;;;18.60;99.90;;;;;;5049540;28;20648;-74
2021/08/25 01:26:33;;;;;;;2.95;2.00;;;18.60;99.90;;;;;;5051737;28;20207;-73
2021/08/25 01:29:02;;;;;;;3.00;1.80;;;18.70;99.90;;;;;;5053786;28;20207;-74
2021/08/25 01:31:30;;;;;;;3.67;2.10;;;18.60;99.90;;;;;;5052597;28;20204;-74
2021/08/25 01:34:05;;;;;;;2.88;2.00;;;18.60;99.90;;;;;;5050679;28;20195;-75
2021/08/25 01:36:32;;;;;;;2.28;1.80;;;18.50;99.90;;;;;;5048273;28;20253;-75
2021/08/25 01:38:59;;;;;;;3.25;1.85;;;18.60;99.90;;;;;;5052352;28;20199;-74
2021/08/25 01:41:27;;;;;;;4.18;1.80;;;18.60;99.90;;;;;;5054406;28;20191;-74
2021/08/25 01:43:55;;;;;;;2.70;1.90;;;18.50;99.90;;;;;;5053717;28;20288;-74
2021/08/25 01:46:23;;;;;;;4.07;2.42;;;18.50;99.90;;;;;;5047627;28;20212;-74
2021/08/25 01:48:52;;;;;;;2.03;1.75;;;18.50;99.90;;;;;;5050552;28;20261;-74
2021/08/25 01:51:19;;;;;;;4.10;2.15;;;18.50;99.90;;;;;;5050700;28;20192;-74
2021/08/25 01:53:45;;;;;;;1.90;1.63;;;18.50;99.90;;;;;;5047606;28;20645;-74
2021/08/25 01:56:12;;;;;;;2.70;1.92;;;18.40;99.90;;;;;;5046268;28;20218;-74
2021/08/25 01:58:41;;;;;;;2.13;1.92;;;18.40;99.90;;;;;;5053043;28;20196;-74
2021/08/25 02:01:08;;;;;;;3.55;2.13;;;18.40;99.90;;;;;;5052298;28;20195;-74
2021/08/25 02:03:34;;;;;;;2.72;2.10;;;18.40;99.90;;;;;;5045708;28;20195;-74
2021/08/25 02:06:03;;;;;;;2.00;1.77;;;18.40;99.90;;;;;;5042994;28;20212;-74
2021/08/25 02:08:30;;;;;;;2.70;1.70;;;18.30;99.90;;;;;;5052119;28;20641;-74
2021/08/25 02:10:56;;;;;;;3.15;1.85;;;18.30;99.90;;;;;;5053582;28;20203;-74
2021/08/25 02:13:23;;;;;;;1.98;1.75;;;18.30;99.90;;;;;;5051935;28;20762;-74
2021/08/25 02:15:51;;;;;;;2.03;1.52;;;18.20;99.90;;;;;;5054234;28;20195;-74
2021/08/25 02:18:18;;;;;;;3.10;2.22;;;18.30;99.90;;;;;;5039464;28;20204;-74
2021/08/25 02:20:45;;;;;;;1.67;1.40;;;18.20;99.90;;;;;;5052204;28;20267;-73
2021/08/25 02:23:13;;;;;;;5.00;3.03;;;18.30;99.90;;;;;;5050239;28;21621;-74
2021/08/25 02:25:39;;;;;;;2.30;2.00;;;18.30;99.90;;;;;;5048329;28;20195;-73
2021/08/25 02:28:06;;;;;;;4.20;2.00;;;18.20;99.90;;;;;;5054097;28;20220;-73
2021/08/25 02:30:33;;;;;;;4.38;2.05;;;18.20;99.90;;;;;;5052095;28;20245;-74
2021/08/25 02:33:00;;;;;;;3.33;2.05;;;18.20;99.90;;;;;;5047427;28;20192;-73
2021/08/25 02:35:27;;;;;;;2.88;2.40;;;18.10;99.90;;;;;;5052542;28;20199;-73
2021/08/25 02:37:53;;;;;;;3.75;2.60;;;18.20;99.90;;;;;;5044741;28;20196;-74
2021/08/25 02:40:21;;;;;;;2.30;1.55;;;18.10;99.90;;;;;;5041892;28;20211;-73
2021/08/25 02:42:48;;;;;;;4.80;2.67;;;18.10;99.90;;;;;;5042411;28;20191;-74
2021/08/25 02:45:15;;;;;;;3.17;2.15;;;18.10;99.90;;;;;;5050117;28;20289;-73
2021/08/25 02:47:42;;;;;;;2.42;1.40;;;18.10;99.90;;;;;;5043114;28;20220;-74
2021/08/25 02:50:09;;;;;;;2.47;2.03;;;18.10;99.90;;;;;;5050630;28;20191;-73
2021/08/25 02:52:36;;;;;;;2.30;1.77;;;18.10;99.90;;;;;;5050986;28;20191;-73
2021/08/25 02:55:03;;;;;;;3.92;1.90;;;18.00;99.90;;;;;;5044193;28;20225;-74
2021/08/25 02:57:31;;;;;;;1.70;1.50;;;18.00;99.90;;;;;;5047181;28;20196;-74
2021/08/25 02:59:58;;;;;;;3.13;2.20;;;18.00;99.90;;;;;;5051966;28;20603;-73
2021/08/25 03:02:24;;;;;;;2.97;2.00;;;18.00;99.90;;;;;;5050653;28;20199;-73
2021/08/25 03:04:51;;;;;;;2.50;1.73;;;18.00;99.90;;;;;;5050567;28;20196;-73
2021/08/25 03:07:18;;;;;;;3.60;2.47;;;18.00;99.90;;;;;;5052532;28;20216;-73
2021/08/25 03:09:44;;;;;;;2.55;2.25;;;17.90;99.90;;;;;;5044152;28;20199;-73
2021/08/25 03:12:11;;;;;;;3.65;2.53;;;17.90;99.90;;;;;;5051906;28;20192;-73
2021/08/25 03:14:39;;;;;;;2.10;1.83;;;17.90;99.90;;;;;;5049511;28;20262;-74
2021/08/25 03:17:06;;;;;;;3.47;1.85;;;17.90;99.90;;;;;;5046387;28;20246;-73
2021/08/25 03:19:32;;;;;;;3.30;2.22;;;17.90;99.90;;;;;;5052208;28;20219;-73
2021/08/25 03:21:59;;;;;;;2.58;1.90;;;17.90;99.90;;;;;;5049856;28;20445;-73
2021/08/25 03:24:26;;;;;;;2.88;2.17;;;17.90;99.90;;;;;;5048982;28;20195;-73
2021/08/25 03:26:52;;;;;;;4.75;2.03;;;17.90;99.90;;;;;;5046037;28;20219;-73
2021/08/25 03:29:19;;;;;;;2.40;2.08;;;17.80;99.90;;;;;;5046298;28;20192;-74
2021/08/25 03:31:47;;;;;;;1.83;1.40;;;17.80;99.90;;;;;;5047443;28;20245;-73
2021/08/25 03:34:14;;;;;;;2.78;1.75;;;17.80;99.90;;;;;;5043542;28;20199;-73
2021/08/25 03:36:40;;;;;;;2.75;2.03;;;17.80;99.90;;;;;;5047094;28;20199;-73
2021/08/25 03:39:07;;;;;;;2.85;1.95;;;17.80;99.90;;;;;;5047260;28;20204;-73
2021/08/25 03:41:34;;;;;;;2.08;1.70;;;17.70;99.90;;;;;;5050681;28;20195;-73
2021/08/25 03:44:01;;;;;;;3.03;2.03;;;17.80;99.90;;;;;;5048491;28;20187;-73
2021/08/25 03:46:28;;;;;;;3.03;1.90;;;17.70;99.90;;;;;;5044484;28;20246;-73
2021/08/25 03:48:56;;;;;;;1.85;1.63;;;17.70;99.90;;;;;;5045208;28;20349;-73
2021/08/25 03:51:22;;;;;;;3.22;1.77;;;17.70;99.90;;;;;;5045953;28;20623;-74
2021/08/25 03:53:49;;;;;;;2.70;1.90;;;17.70;99.90;;;;;;5043104;28;20203;-74
2021/08/25 03:56:16;;;;;;;1.95;1.58;;;17.70;99.90;;;;;;5046198;28;20573;-74
2021/08/25 03:58:42;;;;;;;3.58;2.20;;;17.60;99.90;;;;;;5046272;28;20639;-73
2021/08/25 04:01:09;;;;;;;2.58;2.38;;;17.60;99.90;;;;;;5047475;28;20253;-73
2021/08/25 04:03:36;;;;;;;2.83;1.77;;;17.60;99.90;;;;;;5047178;28;20191;-73
2021/08/25 04:06:04;;;;;;;2.42;1.73;;;17.60;99.90;;;;;;5045965;28;20196;-73
2021/08/25 04:08:31;;;;;;;3.55;1.95;;;17.60;99.90;;;;;;5042404;28;20515;-73
2021/08/25 04:10:58;;;;;;;2.97;2.38;;;17.60;99.90;;;;;;5048965;28;20241;-73
2021/08/25 04:13:25;;;;;;;2.25;1.50;;;17.60;99.90;;;;;;5048544;28;20198;-73
2021/08/25 04:15:51;;;;;;;3.75;2.33;;;17.50;99.90;;;;;;5043474;28;20603;-73
2021/08/25 04:18:18;;;;;;;2.85;2.00;;;17.60;99.90;;;;;;5036436;28;20234;-74
2021/08/25 04:20:45;;;;;;;2.40;2.15;;;17.60;99.90;;;;;;5048940;28;20216;-74
2021/08/25 04:23:13;;;;;;;1.92;1.50;;;17.50;99.90;;;;;;5043761;28;20250;-74
2021/08/25 04:25:41;;;;;;;2.78;1.50;;;17.50;99.90;;;;;;5044792;28;20253;-73
2021/08/25 04:28:09;;;;;;;2.10;1.67;;;17.50;99.90;;;;;;5046418;28;20692;-74
2021/08/25 04:30:35;;;;;;;2.35;1.73;;;17.50;99.90;;;;;;5050340;28;20289;-74
2021/08/25 04:33:03;;;;;;;2.60;2.00;;;17.50;99.90;;;;;;5047399;28;20541;-74
2021/08/25 04:35:29;;;;;;;2.50;2.00;;;17.50;99.90;;;;;;5050715;28;20629;-74
2021/08/25 04:37:56;;;;;;;3.08;2.13;;;17.40;99.90;;;;;;5048534;28;20657;-74
2021/08/25 04:40:24;;;;;;;1.98;1.63;;;17.40;99.90;;;;;;5050252;28;20245;-74
2021/08/25 04:42:51;;;;;;;3.00;2.30;;;17.40;99.90;;;;;;5049391;28;20199;-74
2021/08/25 04:45:17;;;;;;;3.25;2.10;;;17.40;99.90;;;;;;5044036;28;20200;-73
2021/08/25 04:47:44;;;;;;;2.75;2.03;;;17.40;99.90;;;;;;5045016;28;20235;-74
2021/08/25 04:50:11;;;;;;;2.53;2.10;;;17.40;99.90;;;;;;5044250;28;20207;-74
2021/08/25 04:52:38;;;;;;;1.95;1.65;;;17.40;99.90;;;;;;5044323;28;20233;-74
2021/08/25 04:55:05;;;;;;;3.17;2.30;;;17.40;99.90;;;;;;5046216;28;20599;-74
2021/08/25 04:57:33;;;;;;;2.67;1.70;;;17.40;99.90;;;;;;5046501;28;20202;-73
2021/08/25 05:00:00;;;;;;;4.60;1.95;;;17.40;99.90;;;;;;5045630;28;20195;-73
2021/08/25 05:02:27;;;;;;;3.08;2.00;;;17.30;99.90;;;;;;5043062;28;20199;-75
2021/08/25 05:04:53;;;;;;;6.30;2.83;;;17.30;99.90;;;;;;5048029;28;20191;-73
2021/08/25 05:07:20;;;;;;;3.33;2.35;;;17.30;99.90;;;;;;5051511;28;20231;-73
2021/08/25 05:09:47;;;;;;;2.75;1.90;;;17.30;99.90;;;;;;5044910;28;20191;-74
2021/08/25 05:12:15;;;;;;;3.80;2.35;;;17.30;99.90;;;;;;5043787;28;20192;-73
2021/08/25 05:14:43;;;;;;;1.90;1.55;;;17.30;99.90;;;;;;5045657;28;20200;-73
2021/08/25 05:17:10;;;;;;;2.53;1.73;;;17.30;99.90;;;;;;5042797;28;20203;-73
2021/08/25 05:19:37;;;;;;;2.03;1.65;;;17.30;99.90;;;;;;5046673;28;20211;-73
2021/08/25 05:22:04;;;;;;;2.08;1.88;;;17.30;99.90;;;;;;5046575;28;20200;-73
2021/08/25 05:24:31;;;;;;;5.57;2.33;;;17.30;99.90;;;;;;5048535;28;20564;-74
2021/08/25 05:26:57;;;;;;;2.05;1.85;;;17.30;99.90;;;;;;5046630;28;20253;-74
2021/08/25 05:29:24;;;;;;;6.72;2.35;;;17.30;99.90;;;;;;5046998;28;20270;-74
2021/08/25 05:31:52;;;;;;;2.78;1.80;;;17.30;99.90;;;;;;5048099;28;20195;-73
2021/08/25 05:34:19;;;;;;;2.60;2.00;;;17.30;99.90;;;;;;5044209;28;20199;-74
2021/08/25 05:36:46;;;;;;;4.57;2.33;;;17.30;99.90;;;;;;5042690;28;20201;-74
2021/08/25 05:39:12;;;;;;;2.42;2.13;;;17.30;99.90;;;;;;5043464;28;20616;-73
2021/08/25 05:41:39;;;;;;;2.70;1.85;;;17.30;99.90;;;;;;5046255;28;20204;-73
2021/08/25 05:44:06;;;;;;;2.72;1.88;;;17.00;99.90;;;;;;5047315;28;20192;-73
2021/08/25 05:46:32;;;;;;;5.80;2.35;;;17.30;99.90;;;;;;5045422;28;21930;-73
2021/08/25 05:49:01;;;;;;;2.92;1.95;;;17.20;99.90;;;;;;5043931;28;20238;-74
2021/08/25 05:51:28;;;;;;;3.67;2.30;;;17.30;99.90;;;;;;5042455;28;20202;-74
2021/08/25 05:53:55;;;;;;;3.03;2.28;;;17.30;99.90;;;;;;5043506;28;20659;-74
2021/08/25 05:56:22;;;;;;;2.70;2.10;;;17.40;99.90;;;;;;5045106;28;20440;-74
2021/08/25 05:58:48;;;;;;;4.25;2.10;;;17.60;99.90;;;;;;5045911;28;20204;-74
2021/08/25 06:01:16;;;;;;;4.47;2.17;;;17.90;99.90;;;;;;5046370;28;20191;-73
2021/08/25 06:03:43;;;;;;;5.15;2.75;;;18.20;99.90;;;;;;5043144;28;20196;-74
2021/08/25 06:06:12;;;;;;;2.22;2.00;;;18.40;99.90;;;;;;5047571;28;20564;-73
2021/08/25 06:08:39;;;;;;;3.75;1.77;;;18.60;99.90;;;;;;5047976;28;20224;-73
2021/08/25 06:11:05;;;;;;;2.70;2.10;;;18.80;99.90;;;;;;5047010;28;20245;-73
2021/08/25 06:13:32;;;;;;;2.88;2.10;;;19.00;99.90;;;;;;5046481;28;20207;-73
2021/08/25 06:15:59;;;;;;;3.10;2.00;;;19.20;99.90;;;;;;5048712;28;20261;-73
2021/08/25 06:18:26;;;;;;;3.05;2.17;;;19.30;99.90;;;;;;5045104;28;20198;-73
2021/08/25 06:20:52;;;;;;;4.15;2.13;;;19.50;99.90;;;;;;5049107;28;20351;-73
2021/08/25 06:23:21;;;;;;;3.25;2.00;;;19.60;99.90;;;;;;5049177;28;20257;-73
2021/08/25 06:25:49;;;;;;;2.50;1.83;;;19.80;99.90;;;;;;5050150;28;20196;-73
2021/08/25 06:28:16;;;;;;;3.83;2.30;;;19.90;99.90;;;;;;5052660;28;20208;-73
2021/08/25 06:30:42;;;;;;;4.18;2.58;;;20.00;99.90;;;;;;5053372;28;20725;-72
2021/08/25 06:33:09;;;;;;;3.47;2.35;;;20.10;99.90;;;;;;5049603;28;20198;-73
2021/08/25 06:35:36;;;;;;;2.83;2.45;;;20.20;99.90;;;;;;5051219;28;20200;-72
2021/08/25 06:38:03;;;;;;;4.72;2.67;;;20.30;99.90;;;;;;5049475;28;20627;-73
2021/08/25 06:40:32;;;;;;;2.20;1.63;;;20.40;99.90;;;;;;5052356;28;20196;-73
2021/08/25 06:42:59;;;;;;;2.35;2.15;;;20.50;99.90;;;;;;5048836;28;20198;-74
2021/08/25 06:45:26;;;;;;;2.95;1.98;;;20.60;99.90;;;;;;5048918;28;20257;-72
2021/08/25 06:47:52;;;;;;;3.00;2.20;;;20.70;99.90;;;;;;5046944;28;20276;-73
2021/08/25 06:50:19;;;;;;;2.95;2.17;;;20.80;99.90;;;;;;5045862;28;20627;-72
2021/08/25 06:52:46;;;;;;;4.15;2.40;;;20.90;99.90;;;;;;5047784;28;20221;-73
2021/08/25 06:55:12;;;;;;;3.20;1.95;;;20.90;99.90;;;;;;5046303;28;20211;-72
2021/08/25 06:57:40;;;;;;;2.70;1.70;;;21.10;99.90;;;;;;5047555;28;20199;-72
2021/08/25 07:00:08;;;;;;;2.72;1.50;;;21.10;99.90;;;;;;5047890;28;20254;-72
2021/08/25 07:02:34;;;;;;;2.30;2.00;;;21.20;99.90;;;;;;5047628;28;20245;-72
2021/08/25 07:05:01;;;;;;;2.45;1.77;;;21.20;99.90;;;;;;5046298;28;20191;-72
2021/08/25 07:07:28;;;;;;;2.70;1.92;;;21.20;99.90;;;;;;5047487;28;20295;-71
2021/08/25 07:09:54;;;;;;;2.40;2.10;;;21.30;99.90;;;;;;5047284;28;20584;-72
2021/08/25 07:12:21;;;;;;;1.90;1.58;;;21.40;99.90;;;;;;5048437;28;20648;-71
2021/08/25 07:14:50;;;;;;;3.83;2.17;;;21.50;99.90;;;;;;5046186;28;20206;-71
2021/08/25 07:17:17;;;;;;;1.95;1.75;;;21.50;99.90;;;;;;5045610;28;20192;-72
2021/08/25 07:19:44;;;;;;;2.83;2.37;;;21.50;99.90;;;;;;5046143;28;20265;-71
2021/08/25 07:22:11;;;;;;;2.47;2.08;;;21.60;99.90;;;;;;5045323;28;20450;-72
2021/08/25 07:24:37;;;;;;;3.25;2.50;;;21.60;99.90;;;;;;5047208;28;20584;-71
2021/08/25 07:27:04;;;;;;;4.37;2.60;;;21.70;99.90;;;;;;5047157;28;20219;-72
2021/08/25 07:29:32;;;;;;;3.80;2.38;;;21.80;99.90;;;;;;5046935;28;20547;-72
2021/08/25 07:32:01;;;;;;;9.43;2.83;;;21.80;99.70;;;;;;5047725;28;20253;-72
2021/08/25 07:34:28;;;;;;;3.60;2.60;;;21.90;99.50;;;;;;5045219;28;20236;-72
2021/08/25 07:36:55;;;;;;;2.37;2.13;;;22.00;99.40;;;;;;5043347;28;20605;-71
2021/08/25 07:39:21;;;;;;;4.93;2.50;;;22.00;99.40;;;;;;5042086;28;20466;-72
2021/08/25 07:41:48;;;;;;;4.47;2.27;;;22.00;99.30;;;;;;5042316;28;20464;-72
2021/08/25 07:44:15;;;;;;;3.70;2.40;;;22.10;99.20;;;;;;5047780;28;20459;-73
2021/08/25 07:46:42;;;;;;;2.60;2.03;;;22.10;99.20;;;;;;5047482;28;20463;-73
2021/08/25 07:49:10;;;;;;;5.50;3.10;;;22.20;99.00;;;;;;5049964;28;20523;-73
2021/08/25 07:51:36;;;;;;;3.13;2.00;;;22.30;98.90;;;;;;5048307;28;20466;-73
2021/08/25 07:54:03;;;;;;;2.53;2.00;;;22.30;98.60;;;;;;5049575;28;20457;-73
2021/08/25 07:56:30;;;;;;;3.40;2.43;;;22.40;98.70;;;;;;5045163;28;20462;-73
2021/08/25 07:58:57;;;;;;;2.23;1.90;;;22.40;98.60;;;;;;5048198;28;20467;-73
2021/08/25 08:01:23;;;;;;;1.97;1.77;;;22.40;98.60;;;;;;5050481;28;20470;-73
2021/08/25 08:03:50;;;;;;;2.90;1.90;;;22.50;98.60;;;;;;5042213;28;20454;-73
2021/08/25 08:06:19;;;;;;;3.10;1.80;;;22.40;98.60;;;;;;5046111;28;20454;-73
2021/08/25 08:08:46;;;;;;;2.00;1.50;;;22.50;98.50;;;;;;5045091;28;20509;-74
2021/08/25 08:11:13;;;;;;;4.33;2.10;;;22.50;98.50;;;;;;5050527;28;20523;-74
2021/08/25 08:13:40;;;;;;;3.00;1.97;;;22.60;98.40;;;;;;5050228;28;20515;-76
2021/08/25 08:16:08;;;;;;;2.60;2.20;;;22.60;98.40;;;;;;5048809;28;20457;-74
2021/08/25 08:18:37;;;;;;;2.27;1.77;;;22.60;98.40;;;;;;5048372;28;20558;-75
2021/08/25 08:21:04;;;;;;;3.70;2.17;;;22.60;98.50;;;;;;5043548;28;20477;-74
2021/08/25 08:23:33;;;;;;;2.50;2.00;;;22.50;98.50;;;;;;5039649;28;20466;-74
2021/08/25 08:26:01;;;;;;;2.60;1.83;;;22.50;98.60;;;;;;5043957;28;20771;-79
2021/08/25 08:28:32;;;;;;;3.70;2.63;;;22.40;98.70;;;;;;5041343;28;20485;-78
2021/08/25 08:30:59;;;;;;;4.10;2.30;;;22.40;99.00;;;;;;5048882;28;20476;-79
2021/08/25 08:33:26;;;;;;;2.30;1.90;;;22.40;99.20;;;;;;5050033;28;22381;-78
2021/08/25 08:35:52;;;;;;;3.37;2.30;;;22.40;99.30;;;;;;5049927;28;20866;-77
2021/08/25 08:38:19;;;;;;;2.70;1.97;;;22.40;99.20;;;;;;5043560;28;20863;-77
2021/08/25 08:40:47;;;;;;;2.30;2.10;;;22.40;99.20;;;;;;5050106;28;20854;-77
2021/08/25 08:43:14;;;;;;;4.20;2.70;;;22.40;99.40;;;;;;5051302;28;20438;-77
2021/08/25 08:45:43;;;;;;;3.43;2.47;;;22.50;99.20;;;;;;5047185;28;20873;-77
2021/08/25 08:48:12;;;;;;;3.60;1.80;;;22.50;99.20;;;;;;5047722;28;20459;-77
2021/08/25 08:50:39;;;;;;;2.83;1.73;;;22.50;99.20;;;;;;5050894;28;20459;-77
2021/08/25 08:53:08;;;;;;;3.47;1.97;;;22.40;99.30;;;;;;5049495;28;20452;-77
2021/08/25 08:55:35;;;;;;;2.77;2.07;;;22.40;99.40;;;;;;5049730;28;20512;-77
2021/08/25 08:58:03;;;;;;;4.60;2.80;;;22.40;99.60;;;;;;5049318;28;20462;-78
2021/08/25 09:00:30;;;;;;;3.00;2.00;;;22.30;99.70;;;;;;5047187;28;20504;-78
2021/08/25 09:02:57;;;;;;;3.50;2.00;;;22.20;99.90;;;;;;5047499;28;20508;-77
2021/08/25 09:05:25;;;;;;;3.13;2.17;;;22.10;99.90;;;;;;5044211;28;20462;-77
2021/08/25 09:07:54;;;;;;;2.20;1.73;;;22.00;99.90;;;;;;5045967;28;20454;-77
2021/08/25 09:10:24;;;;;;;2.88;1.60;;;22.00;99.90;;;;;;5045652;28;20481;-77
2021/08/25 09:12:51;;;;;;;2.37;1.70;;;21.90;99.90;;;;;;5045590;28;20191;-77
2021/08/25 09:15:21;;;;;;;2.20;1.67;;;21.90;99.90;;;;;;5048857;28;20815;-78
2021/08/25 09:17:54;;;;;;;2.33;2.00;;;21.90;99.90;;;;;;5042159;28;20558;-76
2021/08/25 09:20:21;;;;;;;2.33;2.13;;;21.80;99.90;;;;;;5044573;28;21025;-74
2021/08/25 09:22:47;;;;;;;3.85;2.00;;;21.80;99.90;;;;;;5046907;28;20250;-73
2021/08/25 09:25:31;;;;;;;2.67;1.80;;;21.80;99.90;;;;;;5043472;28;20195;-73
2021/08/25 09:27:58;;;;;;;3.38;2.20;;;21.70;99.90;;;;;;5042149;28;20217;-74
2021/08/25 09:30:26;;;;;;;2.85;2.10;;;21.70;99.90;;;;;;5044601;28;20227;-72
2021/08/25 09:32:52;;;;;;;2.00;1.60;;;21.70;99.90;;;;;;5041687;28;20230;-74
2021/08/25 09:35:19;;;;;;;3.47;1.90;;;21.70;99.90;;;;;;5044344;28;20854;-74
2021/08/25 09:37:52;;;;;;;2.35;1.73;;;21.80;99.90;;;;;;5044083;28;20200;-74
2021/08/25 09:40:19;;;;;;;1.98;1.70;;;21.90;99.90;;;;;;5044995;28;20215;-74
2021/08/25 09:42:47;;;;;;;2.20;1.80;;;22.00;99.90;;;;;;5050073;28;20652;-73
2021/08/25 09:45:16;;;;;;;2.80;2.13;;;22.10;99.90;;;;;;5052977;28;20461;-81
2021/08/25 09:47:48;;;;;;;2.90;1.90;;;22.20;99.90;;;;;;5049307;28;20807;-73
2021/08/25 09:50:16;;;;;;;3.70;2.60;;;22.30;99.90;;;;;;5049004;28;21988;-74
2021/08/25 09:52:44;;;;;;;3.20;2.23;;;22.40;99.90;;;;;;5049278;28;20462;-73
2021/08/25 09:55:12;;;;;;;3.63;2.33;;;22.40;99.90;;;;;;5048063;28;20962;-75
2021/08/25 09:57:41;;;;;;;2.90;2.20;;;22.40;99.90;;;;;;5048642;28;20854;-73
2021/08/25 10:00:09;;;;;;;2.07;1.43;;;22.40;99.90;;;;;;5047966;28;20942;-73
2021/08/25 10:02:36;;;;;;;3.07;2.30;;;22.40;99.90;;;;;;5040973;28;20462;-74
2021/08/25 10:05:05;;;;;;;2.63;2.13;;;22.40;99.90;;;;;;5052727;28;20963;-73
2021/08/25 10:07:33;;;;;;;2.67;2.10;;;22.40;99.30;;;;;;5052994;28;20458;-73
2021/08/25 10:10:00;;;;;;;2.87;2.43;;;22.30;99.50;;;;;;5044224;28;20216;-72
2021/08/25 10:12:27;;;;;;;2.40;1.90;;;22.30;99.50;;;;;;5048948;28;20455;-73
2021/08/25 10:14:54;;;;;;;2.77;2.00;;;22.30;99.90;;;;;;5038534;28;20394;-73
2021/08/25 10:17:40;;;;;;;3.30;2.40;;;22.30;99.80;;;;;;5050055;28;20466;-73
2021/08/25 10:20:36;;;;;;;3.43;2.30;;;22.30;99.00;;;;;;5052963;28;20473;-73
2021/08/25 10:23:03;;;;;;;2.80;2.30;;;22.30;99.20;;;;;;5051804;28;20812;-73
2021/08/25 10:25:31;;;;;;;2.70;1.90;;;22.30;99.80;;;;;;5050148;28;20199;-73
2021/08/25 10:28:03;;;;;;;3.23;2.27;;;22.40;99.10;;;;;;5052705;28;20954;-73
2021/08/25 10:30:31;;;;;;;3.13;2.03;;;22.30;99.30;;;;;;5050939;28;20470;-73
2021/08/25 10:33:09;;;;;;;2.90;2.37;;;22.30;99.40;;;;;;5050394;28;20491;-72
2021/08/25 10:35:40;;;;;;;3.97;2.43;;;22.30;99.40;;;;;;5042589;28;20485;-73
2021/08/25 10:38:19;;;;;;;2.30;1.80;;;22.30;99.00;;;;;;5051625;28;20970;-73
2021/08/25 10:40:46;;;;;;;2.67;2.10;;;22.30;99.40;;;;;;5051753;28;20453;-73
2021/08/25 10:43:38;;;;;;;2.40;1.77;;;22.30;99.60;;;;;;5052195;28;20465;-72
2021/08/25 10:46:06;;;;;;;2.87;2.20;;;22.30;99.60;;;;;;5053733;28;20946;-75
2021/08/25 10:48:47;;;;;;;3.75;3.28;;;22.30;99.40;;;;;;5048276;28;20663;-73
2021/08/25 10:51:29;;;;;;;3.33;2.60;;;22.30;99.00;;;;;;5048369;28;20219;-75
2021/08/25 10:53:56;;;;;;;2.97;1.90;;;22.30;99.50;;;;;;5048631;28;20962;-77
2021/08/25 10:56:35;;;;;;;2.53;2.13;;;22.30;99.40;;;;;;5052819;28;20588;-76
2021/08/25 10:59:04;;;;;;;2.90;2.60;;;22.20;98.80;;;;;;5052937;28;20931;-76
2021/08/25 11:01:33;;;;;;;4.00;2.13;;;22.20;98.70;;;;;;5046951;28;20938;-76
2021/08/25 11:04:02;;;;;;;4.57;2.25;;;22.20;98.90;;;;;;5051495;28;20683;-76
2021/08/25 11:06:39;;;;;;;2.45;1.83;;;22.20;99.30;;;;;;5052504;28;20188;-77
2021/08/25 11:09:29;;;;;;;2.27;1.97;;;22.20;99.30;;;;;;5050562;28;20206;-78
2021/08/25 11:12:01;;;;;;;4.73;2.50;;;22.20;99.10;;;;;;5040291;28;20964;-76
2021/08/25 11:14:34;;;;;;;7.80;2.45;;;22.20;99.40;;;;;;5053428;28;20492;-76
2021/08/25 11:17:06;;;;;;;4.93;3.37;;;22.20;99.90;;;;;;5044346;28;20204;-77
2021/08/25 11:19:36;;;;;;;2.87;2.40;;;22.20;99.60;;;;;;5049887;28;20851;-76
2021/08/25 11:22:05;;;;;;;2.30;2.10;;;22.20;99.50;;;;;;5050499;28;20857;-77
2021/08/25 11:24:37;;;;;;;5.30;2.88;;;22.10;99.40;;;;;;5050394;28;20462;-76
2021/08/25 11:27:05;;;;;;;3.40;2.50;;;22.10;99.30;;;;;;5053174;28;20191;-76
2021/08/25 11:29:32;;;;;;;3.20;2.57;;;22.10;99.20;;;;;;5051754;28;20970;-75
2021/08/25 11:32:04;;;;;;;3.67;2.70;;;22.10;99.30;;;;;;5052479;28;20443;-75
2021/08/25 11:34:31;;;;;;;5.27;3.00;;;22.10;99.30;;;;;;5050775;28;20542;-76
2021/08/25 11:37:00;;;;;;;3.20;2.37;;;22.10;99.40;;;;;;5052317;28;20449;-75
2021/08/25 11:39:28;;;;;;;2.97;2.40;;;22.10;99.10;;;;;;5035566;28;20466;-75
2021/08/25 11:41:56;;;;;;;2.95;2.40;;;22.10;98.70;;;;;;5050082;28;20503;-76
2021/08/25 11:44:44;;;;;;;2.75;2.33;;;22.10;99.00;;;;;;5051842;28;20200;-76
2021/08/25 11:47:12;;;;;;;3.90;2.88;;;22.10;98.90;;;;;;5051220;28;20201;-76
2021/08/25 11:49:40;;;;;;;3.40;2.63;;;22.10;99.20;;;;;;5051615;28;20246;-76
2021/08/25 11:52:09;;;;;;;3.53;2.10;;;22.10;99.20;;;;;;5052021;28;20474;-76
2021/08/25 11:54:37;;;;;;;3.10;2.50;;;22.10;99.40;;;;;;5039632;28;21037;-76
2021/08/25 11:57:05;;;;;;;3.90;2.63;;;22.10;99.60;;;;;;5052223;28;20865;-75
2021/08/25 11:59:31;;;;;;;2.90;2.45;;;22.10;99.40;;;;;;5050845;28;20649;-76
2021/08/25 12:02:08;;;;;;;2.97;2.33;;;22.10;99.50;;;;;;5050557;28;20202;-75
2021/08/25 12:04:35;;;;;;;2.30;2.00;;;22.00;99.60;;;;;;5052108;28;20253;-75
2021/08/25 12:07:02;;;;;;;4.40;2.90;;;22.00;99.40;;;;;;5051542;28;20442;-76
2021/08/25 12:09:30;;;;;;;4.27;2.00;;;22.00;99.60;;;;;;5047786;28;20503;-76
2021/08/25 12:11:58;;;;;;;2.90;2.17;;;22.00;99.40;;;;;;5051755;28;20466;-75
2021/08/25 12:14:25;;;;;;;2.90;2.00;;;22.00;99.40;;;;;;5052602;28;20195;-75
2021/08/25 12:17:06;;;;;;;2.15;1.77;;;22.00;99.70;;;;;;5050195;28;20256;-75
2021/08/25 12:19:34;;;;;;;3.80;2.57;;;22.00;99.90;;;;;;5058512;28;20218;-74
2021/08/25 12:22:20;;;;;;;2.88;2.05;;;22.00;99.60;;;;;;5064440;28;20457;-75
2021/08/25 12:24:46;;;;;;;3.53;2.63;;;22.00;99.80;;;;;;5050473;28;20609;-75
2021/08/25 12:27:14;;;;;;;3.58;2.40;;;22.00;99.80;;;;;;5051970;28;20556;-76
2021/08/25 12:29:44;;;;;;;3.78;3.00;;;22.00;99.70;;;;;;5050334;28;20631;-75
2021/08/25 12:32:12;;;;;;;4.07;2.15;;;22.00;99.50;;;;;;5049240;28;20202;-75
2021/08/25 12:34:58;;;;;;;3.58;2.10;;;22.00;99.90;;;;;;5050980;28;20198;-75
2021/08/25 12:37:39;;;;;;;4.28;2.53;;;22.00;99.90;;;;;;5051034;28;20221;-75
2021/08/25 12:40:07;;;;;;;3.40;2.40;;;22.00;99.90;;;;;;5046391;28;20214;-76
2021/08/25 12:42:35;;;;;;;3.03;2.75;;;22.00;99.80;;;;;;5050828;28;20634;-75
2021/08/25 12:45:02;;;;;;;9.13;2.50;;;22.00;99.80;;;;;;5051654;28;20438;-76
2021/08/25 12:47:29;;;;;;;3.17;2.50;;;22.00;99.90;;;;;;5050340;28;20191;-75
2021/08/25 12:49:55;;;;;;;2.50;2.25;;;22.00;99.90;;;;;;5050380;28;20219;-75
2021/08/25 12:52:22;;;;;;;2.75;2.35;;;21.90;99.90;;;;;;5051018;28;20191;-76